Time;durP1;ratioP1;P1;durP2;ratioP2;P2;SDS_P1;SDS_P2;PMS_P1;PMS_P2;Temp;Humidity;BMP_temperature;BMP_pressure;BME280_temperature;BME280_humidity;BME280_pressure;Samples;Min_cycle;Max_cycle;Signal;HPM_P1;HPM_P2
2023/01/16 00:02:19;;;;;;;3.92;1.75;;;6.70;89.70;;;;;;5031521;28;20030;-66
2023/01/16 00:04:45;;;;;;;3.28;1.58;;;6.70;89.80;;;;;;5032671;28;20110;-67
2023/01/16 00:07:11;;;;;;;1.15;1.05;;;6.70;90.00;;;;;;5032203;28;20487;-66
2023/01/16 00:09:36;;;;;;;2.28;1.30;;;6.70;90.10;;;;;;5032550;28;20025;-67
2023/01/16 00:12:02;;;;;;;2.38;1.65;;;6.70;90.10;;;;;;5031104;28;20041;-66
2023/01/16 00:14:30;;;;;;;3.08;1.30;;;6.70;90.10;;;;;;5027792;28;20029;-66
2023/01/16 00:16:56;;;;;;;3.05;1.40;;;6.70;90.20;;;;;;5026333;28;20025;-67
2023/01/16 00:19:21;;;;;;;2.35;1.27;;;6.70;90.20;;;;;;5030884;28;20836;-67
2023/01/16 00:21:47;;;;;;;2.10;1.63;;;6.70;90.30;;;;;;5031851;28;20090;-67
2023/01/16 00:24:13;;;;;;;3.55;1.60;;;6.60;90.30;;;;;;5031931;28;20021;-67
2023/01/16 00:26:39;;;;;;;3.55;1.75;;;6.70;90.40;;;;;;5024708;28;20025;-67
2023/01/16 00:29:04;;;;;;;3.50;1.80;;;6.60;90.50;;;;;;5032114;28;20048;-67
2023/01/16 00:31:30;;;;;;;3.13;1.60;;;6.60;90.50;;;;;;5032150;28;20025;-67
2023/01/16 00:33:55;;;;;;;3.47;1.77;;;6.60;90.60;;;;;;5028796;28;20076;-67
2023/01/16 00:36:21;;;;;;;3.55;1.70;;;6.60;90.60;;;;;;5030462;28;20386;-67
2023/01/16 00:38:47;;;;;;;1.60;1.30;;;6.60;90.60;;;;;;5032185;28;20448;-67
2023/01/16 00:41:12;;;;;;;3.05;1.70;;;6.60;90.70;;;;;;5031854;28;20021;-67
2023/01/16 00:43:38;;;;;;;2.67;1.73;;;6.60;90.80;;;;;;5032039;28;20026;-67
2023/01/16 00:46:04;;;;;;;3.10;1.90;;;6.60;90.80;;;;;;5032127;28;20193;-67
2023/01/16 00:48:29;;;;;;;4.53;2.40;;;6.70;90.90;;;;;;5031617;28;20648;-67
2023/01/16 00:50:55;;;;;;;5.05;2.67;;;6.60;90.80;;;;;;5032211;28;20787;-67
2023/01/16 00:53:21;;;;;;;4.05;2.17;;;6.60;90.90;;;;;;5031705;28;20113;-67
2023/01/16 00:55:46;;;;;;;3.75;2.05;;;6.60;91.00;;;;;;5032121;28;20056;-67
2023/01/16 00:58:12;;;;;;;2.67;1.90;;;6.60;91.00;;;;;;5031599;28;20025;-67
2023/01/16 01:00:38;;;;;;;2.15;1.73;;;6.60;91.00;;;;;;5031874;28;20033;-67
2023/01/16 01:03:04;;;;;;;4.20;2.38;;;6.60;91.00;;;;;;5031692;28;20400;-67
2023/01/16 01:05:30;;;;;;;5.05;2.67;;;6.60;91.00;;;;;;5031592;28;20033;-67
2023/01/16 01:07:56;;;;;;;4.63;2.83;;;6.60;91.30;;;;;;5031403;28;20025;-67
2023/01/16 01:10:22;;;;;;;6.00;3.40;;;6.60;91.10;;;;;;5031510;28;20026;-67
2023/01/16 01:12:47;;;;;;;7.65;4.22;;;6.60;91.20;;;;;;5031765;28;20032;-68
2023/01/16 01:15:13;;;;;;;8.52;3.85;;;6.50;91.20;;;;;;5031314;28;20029;-67
2023/01/16 01:17:39;;;;;;;5.78;3.65;;;6.50;91.20;;;;;;5031108;28;20053;-67
2023/01/16 01:20:05;;;;;;;6.57;4.30;;;6.50;91.10;;;;;;5030234;28;20029;-67
2023/01/16 01:22:31;;;;;;;5.38;3.67;;;6.50;91.20;;;;;;5021931;28;20060;-67
2023/01/16 01:24:56;;;;;;;9.05;4.32;;;6.50;91.10;;;;;;5029357;28;20053;-67
2023/01/16 01:27:22;;;;;;;5.40;2.88;;;6.50;91.10;;;;;;5027339;28;20494;-67
2023/01/16 01:29:48;;;;;;;6.00;3.58;;;6.50;91.10;;;;;;5029780;28;20029;-67
2023/01/16 01:32:13;;;;;;;4.90;3.30;;;6.50;91.00;;;;;;5031725;28;20376;-67
2023/01/16 01:34:39;;;;;;;8.23;4.53;;;6.50;91.00;;;;;;5030971;28;20082;-67
2023/01/16 01:37:06;;;;;;;4.45;3.03;;;6.40;91.00;;;;;;5030162;28;20381;-67
2023/01/16 01:39:33;;;;;;;7.75;4.30;;;6.40;91.00;;;;;;5030797;28;20025;-67
2023/01/16 01:44:49;;;;;;;6.40;3.80;;;6.40;91.00;;;;;;5030909;28;20044;-67
2023/01/16 01:47:15;;;;;;;4.38;2.83;;;6.40;91.00;;;;;;5030664;28;20446;-67
2023/01/16 01:49:41;;;;;;;3.88;2.25;;;6.40;91.10;;;;;;5030890;28;20071;-67
2023/01/16 01:52:09;;;;;;;4.03;2.70;;;6.40;91.10;;;;;;5030750;28;20488;-67
2023/01/16 01:54:59;;;;;;;6.25;3.17;;;6.30;91.10;;;;;;5030356;28;20037;-67
2023/01/16 01:57:34;;;;;;;5.60;3.17;;;6.40;91.10;;;;;;5028980;28;20105;-67
2023/01/16 02:00:10;;;;;;;5.82;2.78;;;6.40;91.10;;;;;;5029371;28;20029;-67
2023/01/16 02:02:41;;;;;;;6.45;3.10;;;6.30;91.10;;;;;;5027258;28;20021;-67
2023/01/16 02:05:09;;;;;;;5.97;2.78;;;6.20;91.10;;;;;;5029618;28;20038;-67
2023/01/16 02:07:35;;;;;;;8.15;3.47;;;6.20;91.10;;;;;;5029062;28;20040;-67
2023/01/16 02:10:44;;;;;;;2.33;2.00;;;6.20;91.20;;;;;;5029618;28;20455;-67
2023/01/16 02:13:10;;;;;;;3.85;2.47;;;6.20;91.20;;;;;;5030649;28;20361;-69
2023/01/16 02:19:14;;;;;;;4.55;2.65;;;6.20;91.20;;;;;;5029832;28;20037;-67
2023/01/16 02:21:43;;;;;;;4.57;2.05;;;6.20;91.20;;;;;;5030043;28;20565;-69
2023/01/16 02:24:47;;;;;;;3.30;1.50;;;6.20;91.30;;;;;;5030118;28;20034;-68
2023/01/16 02:27:40;;;;;;;5.68;1.90;;;6.20;91.20;;;;;;5009693;28;20109;-69
2023/01/16 02:30:43;;;;;;;2.50;1.55;;;6.30;91.30;;;;;;5023256;28;20041;-68
2023/01/16 02:33:32;;;;;;;3.63;1.95;;;6.20;91.20;;;;;;5029811;28;20029;-67
2023/01/16 02:36:07;;;;;;;4.75;1.67;;;6.30;91.20;;;;;;5028221;28;20030;-67
2023/01/16 02:39:04;;;;;;;3.55;1.77;;;6.20;91.10;;;;;;5028613;28;20163;-69
2023/01/16 02:42:03;;;;;;;2.13;1.50;;;6.20;91.20;;;;;;5026121;28;20041;-68
2023/01/16 02:44:51;;;;;;;7.55;2.08;;;6.30;91.20;;;;;;5029658;28;20022;-68
2023/01/16 02:47:31;;;;;;;3.95;2.13;;;6.30;91.20;;;;;;5029922;28;20025;-68
2023/01/16 02:50:22;;;;;;;2.33;1.50;;;6.30;91.10;;;;;;5029912;28;20025;-67
2023/01/16 02:53:22;;;;;;;3.80;1.48;;;6.20;91.10;;;;;;5030090;28;20475;-68
2023/01/16 02:55:57;;;;;;;2.47;1.33;;;6.30;91.10;;;;;;5029648;28;20053;-68
2023/01/16 02:58:24;;;;;;;3.92;1.30;;;6.30;91.10;;;;;;5029795;28;20029;-68
2023/01/16 03:00:51;;;;;;;2.08;1.30;;;6.30;91.10;;;;;;5029813;28;20072;-69
2023/01/16 03:03:35;;;;;;;2.28;1.52;;;6.20;91.10;;;;;;5029636;28;20018;-69
2023/01/16 03:06:16;;;;;;;3.92;1.63;;;6.20;91.20;;;;;;5029746;28;20022;-69
2023/01/16 03:08:47;;;;;;;4.10;1.55;;;6.20;91.20;;;;;;5029773;28;20049;-67
2023/01/16 03:11:24;;;;;;;3.88;1.40;;;6.10;91.20;;;;;;5029814;28;20510;-68
2023/01/16 03:14:22;;;;;;;6.25;1.40;;;6.10;91.20;;;;;;5029310;28;20025;-68
2023/01/16 03:17:25;;;;;;;7.15;1.48;;;6.10;91.20;;;;;;5028410;28;20462;-67
2023/01/16 03:20:09;;;;;;;;;;;6.00;91.20;;;;;;5030215;28;20115;-68
2023/01/16 03:22:46;;;;;;;2.15;1.13;;;5.90;91.20;;;;;;5029890;28;19909;-69
2023/01/16 03:25:21;;;;;;;3.67;1.50;;;5.90;91.30;;;;;;5029537;28;20539;-68
2023/01/16 03:28:04;;;;;;;1.70;1.10;;;5.90;91.40;;;;;;5028236;28;20038;-69
2023/01/16 03:30:59;;;;;;;5.75;1.30;;;5.80;91.30;;;;;;5029832;28;20674;-70
2023/01/16 03:33:58;;;;;;;4.32;1.17;;;5.80;91.40;;;;;;5028198;28;20030;-68
2023/01/16 03:36:31;;;;;;;3.00;1.17;;;5.80;91.40;;;;;;5028293;28;20494;-69
2023/01/16 03:38:59;;;;;;;2.10;1.13;;;5.80;91.50;;;;;;5029393;28;20096;-68
2023/01/16 03:41:27;;;;;;;4.00;1.40;;;5.80;91.50;;;;;;5029248;28;20030;-69
2023/01/16 03:44:05;;;;;;;2.97;1.20;;;5.70;91.40;;;;;;5029422;28;20029;-68
2023/01/16 03:46:37;;;;;;;2.22;1.20;;;5.70;91.50;;;;;;5031099;28;20091;-67
2023/01/16 03:49:11;;;;;;;1.67;0.90;;;5.70;91.50;;;;;;5031702;28;20033;-68
2023/01/16 03:52:01;;;;;;;1.55;0.88;;;5.70;91.60;;;;;;5031467;28;20511;-68
2023/01/16 03:54:45;;;;;;;1.70;0.98;;;5.70;91.70;;;;;;5030084;28;20392;-67
2023/01/16 03:57:29;;;;;;;4.57;1.40;;;5.70;91.60;;;;;;5032638;28;20076;-68
2023/01/16 03:59:55;;;;;;;2.45;1.00;;;5.60;91.70;;;;;;5011909;28;20559;-68
2023/01/16 04:02:30;;;;;;;3.28;1.10;;;5.60;91.70;;;;;;5028331;28;20117;-68
2023/01/16 04:05:12;;;;;;;1.75;0.90;;;5.60;91.80;;;;;;5032701;28;20459;-69
2023/01/16 04:07:54;;;;;;;1.75;1.10;;;5.60;91.80;;;;;;5025230;28;20025;-68
2023/01/16 04:10:24;;;;;;;2.85;1.13;;;5.50;91.80;;;;;;5033150;28;20104;-68
2023/01/16 04:12:57;;;;;;;3.72;1.35;;;5.50;91.80;;;;;;5032773;28;20029;-69
2023/01/16 04:15:26;;;;;;;2.25;1.10;;;5.40;91.90;;;;;;5030981;28;20030;-67
2023/01/16 04:17:52;;;;;;;1.17;0.85;;;5.40;91.90;;;;;;5032298;28;20100;-68
2023/01/16 04:20:19;;;;;;;3.03;1.20;;;5.40;91.90;;;;;;5032167;28;20071;-68
2023/01/16 04:22:48;;;;;;;2.65;1.10;;;5.30;91.90;;;;;;5032473;28;20121;-67
2023/01/16 04:25:14;;;;;;;1.65;1.15;;;5.30;92.00;;;;;;5030965;28;20043;-67
2023/01/16 04:27:40;;;;;;;1.80;1.33;;;5.30;92.00;;;;;;5031902;28;20112;-68
2023/01/16 04:30:07;;;;;;;1.60;1.20;;;5.40;92.00;;;;;;5029296;28;20025;-68
2023/01/16 04:32:32;;;;;;;2.20;1.20;;;5.40;92.00;;;;;;5030890;28;20032;-68
2023/01/16 04:34:58;;;;;;;3.05;1.10;;;5.40;91.90;;;;;;5027798;28;20018;-67
2023/01/16 04:37:23;;;;;;;4.78;1.25;;;5.30;92.00;;;;;;5031269;28;20010;-67
2023/01/16 04:39:49;;;;;;;2.88;1.50;;;5.40;92.00;;;;;;5031954;28;20030;-68
2023/01/16 04:42:15;;;;;;;3.10;1.45;;;5.40;92.00;;;;;;5031498;28;20067;-68
2023/01/16 04:44:41;;;;;;;1.92;1.10;;;5.40;91.90;;;;;;5030359;28;20067;-68
2023/01/16 04:47:07;;;;;;;1.58;1.10;;;5.30;91.90;;;;;;5028535;28;20022;-69
2023/01/16 04:49:33;;;;;;;3.72;1.40;;;5.40;91.90;;;;;;5030222;28;20033;-67
2023/01/16 04:51:58;;;;;;;2.47;1.17;;;5.40;91.90;;;;;;5030168;28;20029;-67
2023/01/16 04:54:24;;;;;;;1.80;1.20;;;5.30;91.90;;;;;;5031347;28;20060;-67
2023/01/16 04:56:49;;;;;;;3.47;1.55;;;5.30;91.90;;;;;;5043304;28;20014;-66
2023/01/16 04:59:18;;;;;;;2.85;1.30;;;5.30;92.10;;;;;;5030938;28;20115;-68
2023/01/16 05:01:44;;;;;;;3.88;1.35;;;5.30;92.00;;;;;;5030981;28;20028;-69
2023/01/16 05:04:11;;;;;;;4.07;1.58;;;5.20;92.00;;;;;;5030296;28;20383;-69
2023/01/16 05:06:37;;;;;;;4.15;1.60;;;5.20;92.10;;;;;;5030936;28;20024;-67
2023/01/16 05:09:05;;;;;;;5.47;2.05;;;5.10;92.40;;;;;;5031381;28;20026;-68
2023/01/16 05:11:31;;;;;;;3.42;1.73;;;5.10;92.30;;;;;;5030797;28;20026;-68
2023/01/16 05:13:56;;;;;;;5.28;2.20;;;5.10;92.30;;;;;;5031082;28;20068;-68
2023/01/16 05:16:22;;;;;;;3.50;1.60;;;5.10;92.40;;;;;;5030463;28;20030;-67
2023/01/16 05:18:48;;;;;;;3.95;1.77;;;5.10;92.40;;;;;;5030760;28;20030;-68
2023/01/16 05:21:13;;;;;;;3.35;1.70;;;5.10;92.50;;;;;;5029397;28;20034;-68
2023/01/16 05:23:39;;;;;;;5.63;1.70;;;5.10;92.40;;;;;;5030180;28;20033;-68
2023/01/16 05:26:06;;;;;;;4.95;2.05;;;5.20;92.50;;;;;;5030742;28;20487;-67
2023/01/16 05:28:32;;;;;;;4.03;1.77;;;5.20;92.50;;;;;;5029988;28;20029;-68
2023/01/16 05:30:58;;;;;;;5.30;1.85;;;5.10;92.40;;;;;;5030752;28;20029;-67
2023/01/16 05:33:24;;;;;;;2.45;1.70;;;5.10;92.50;;;;;;5029196;28;20033;-67
2023/01/16 05:35:53;;;;;;;4.05;1.60;;;5.10;92.40;;;;;;5030535;28;20033;-69
2023/01/16 05:38:20;;;;;;;2.78;1.30;;;5.10;92.50;;;;;;5029553;28;20032;-67
2023/01/16 05:40:46;;;;;;;5.40;1.88;;;5.10;92.50;;;;;;5030558;28;20074;-68
2023/01/16 05:43:11;;;;;;;1.73;1.17;;;5.10;92.50;;;;;;5030646;28;20443;-68
2023/01/16 05:45:37;;;;;;;3.22;1.55;;;5.10;92.50;;;;;;5030702;28;20033;-67
2023/01/16 05:48:03;;;;;;;4.30;1.35;;;5.10;92.60;;;;;;5030496;28;20188;-68
2023/01/16 05:50:28;;;;;;;2.92;1.40;;;5.10;92.60;;;;;;5030311;28;20049;-69
2023/01/16 05:52:54;;;;;;;5.60;1.42;;;5.10;92.60;;;;;;5030204;28;20029;-68
2023/01/16 05:55:20;;;;;;;2.92;1.33;;;5.10;92.60;;;;;;5030371;28;20510;-69
2023/01/16 05:57:45;;;;;;;3.65;1.40;;;5.10;92.60;;;;;;5030466;28;20022;-67
2023/01/16 06:00:11;;;;;;;2.67;1.30;;;5.10;92.60;;;;;;5028559;28;20021;-67
2023/01/16 06:02:37;;;;;;;4.20;1.60;;;5.10;92.60;;;;;;5026162;28;20030;-69
2023/01/16 06:05:03;;;;;;;3.03;1.45;;;5.10;92.60;;;;;;5023698;28;20040;-69
2023/01/16 06:07:29;;;;;;;4.38;1.15;;;5.20;92.60;;;;;;5034137;28;20112;-69
2023/01/16 06:09:54;;;;;;;3.25;1.20;;;5.20;92.60;;;;;;5029050;28;20649;-67
2023/01/16 06:12:20;;;;;;;1.63;1.20;;;5.20;92.60;;;;;;5026938;28;20149;-67
2023/01/16 06:14:46;;;;;;;3.72;1.83;;;5.20;92.60;;;;;;5031016;28;20040;-70
2023/01/16 06:17:14;;;;;;;3.70;1.55;;;5.20;92.60;;;;;;5030755;28;20624;-69
2023/01/16 06:19:40;;;;;;;2.53;1.27;;;5.20;92.60;;;;;;5028852;28;20112;-69
2023/01/16 06:22:06;;;;;;;1.77;1.20;;;5.20;92.50;;;;;;5030695;28;20025;-68
2023/01/16 06:24:32;;;;;;;3.50;1.50;;;5.20;92.60;;;;;;5029044;28;20021;-69
2023/01/16 06:26:58;;;;;;;1.95;1.00;;;5.20;92.60;;;;;;5029056;28;20365;-70
2023/01/16 06:29:24;;;;;;;3.92;1.10;;;5.30;92.60;;;;;;5028823;28;20476;-68
2023/01/16 06:31:49;;;;;;;4.28;1.40;;;5.30;92.60;;;;;;5027613;28;20034;-68
2023/01/16 06:34:15;;;;;;;2.58;1.20;;;5.30;92.50;;;;;;5028538;28;20025;-69
2023/01/16 06:36:41;;;;;;;4.43;1.40;;;5.40;92.40;;;;;;5028873;28;20029;-67
2023/01/16 06:39:07;;;;;;;6.45;1.30;;;5.40;92.30;;;;;;5027300;28;20013;-69
2023/01/16 06:41:33;;;;;;;4.38;1.10;;;5.40;92.20;;;;;;5028064;28;20093;-68
2023/01/16 06:43:59;;;;;;;2.03;1.05;;;5.40;92.10;;;;;;5028695;28;20152;-70
2023/01/16 06:46:25;;;;;;;2.55;1.10;;;5.40;92.00;;;;;;5026843;28;20037;-68
2023/01/16 06:48:50;;;;;;;2.47;1.00;;;5.50;92.00;;;;;;5028322;28;20108;-69
2023/01/16 06:51:16;;;;;;;2.83;1.20;;;5.50;91.90;;;;;;5027861;28;20029;-69
2023/01/16 06:53:42;;;;;;;4.05;1.48;;;5.50;91.80;;;;;;5028152;28;20076;-68
2023/01/16 06:56:07;;;;;;;2.13;1.20;;;5.40;91.70;;;;;;5028948;28;20407;-68
2023/01/16 06:58:33;;;;;;;2.40;0.98;;;5.50;91.80;;;;;;5028705;28;20067;-69
2023/01/16 07:00:58;;;;;;;2.65;1.10;;;5.50;91.80;;;;;;5025623;28;20036;-67
2023/01/16 07:03:24;;;;;;;1.48;1.00;;;5.50;91.70;;;;;;5023720;28;20100;-67
2023/01/16 07:05:50;;;;;;;2.95;1.20;;;5.60;91.80;;;;;;5034932;28;20075;-68
2023/01/16 07:08:16;;;;;;;1.98;1.20;;;5.60;91.70;;;;;;5027720;28;20063;-69
2023/01/16 07:10:41;;;;;;;1.90;1.02;;;5.50;91.70;;;;;;5028723;28;20025;-69
2023/01/16 07:13:07;;;;;;;2.47;1.30;;;5.50;91.80;;;;;;5025094;28;20063;-67
2023/01/16 07:23:52;;;;;;;1.73;1.33;;;5.50;92.10;;;;;;5030724;28;20041;-69
2023/01/16 07:26:20;;;;;;;2.63;1.30;;;5.60;92.10;;;;;;5029767;28;20034;-68
2023/01/16 07:28:48;;;;;;;3.05;1.73;;;5.60;92.20;;;;;;5031206;28;20071;-71
2023/01/16 07:31:14;;;;;;;2.80;1.67;;;5.60;92.10;;;;;;5031467;28;20021;-68
2023/01/16 07:33:40;;;;;;;2.15;1.45;;;5.60;92.20;;;;;;5031573;28;20466;-69
2023/01/16 07:36:05;;;;;;;2.03;1.23;;;5.60;92.30;;;;;;5031252;28;20079;-69
2023/01/16 07:38:31;;;;;;;2.42;1.63;;;5.60;92.40;;;;;;5031483;28;20048;-68
2023/01/16 07:40:57;;;;;;;5.22;1.80;;;5.50;92.60;;;;;;5030068;28;20100;-67
2023/01/16 07:43:22;;;;;;;2.65;1.70;;;5.50;92.80;;;;;;5030363;28;20018;-67
2023/01/16 07:45:53;;;;;;;3.83;1.73;;;5.50;92.90;;;;;;5030410;28;20112;-69
2023/01/16 07:48:24;;;;;;;2.27;1.53;;;5.50;93.00;;;;;;5027458;28;20084;-69
2023/01/16 07:50:54;;;;;;;2.78;1.52;;;5.50;93.10;;;;;;5031940;28;20060;-68
2023/01/16 07:53:22;;;;;;;2.38;1.50;;;5.50;93.10;;;;;;5029798;28;20415;-68
2023/01/16 07:55:52;;;;;;;3.03;1.50;;;5.60;93.10;;;;;;5030899;28;20063;-69
2023/01/16 07:58:18;;;;;;;5.97;1.80;;;5.60;93.10;;;;;;5030566;28;20021;-68
2023/01/16 08:00:45;;;;;;;2.95;1.40;;;5.50;93.20;;;;;;5031016;28;20026;-68
2023/01/16 08:03:11;;;;;;;2.17;1.70;;;5.60;93.30;;;;;;5030144;28;20036;-68
2023/01/16 08:05:37;;;;;;;4.15;1.88;;;5.50;93.30;;;;;;5030982;28;20097;-68
2023/01/16 08:08:03;;;;;;;5.95;1.52;;;5.50;93.30;;;;;;5030949;28;20483;-68
2023/01/16 08:10:29;;;;;;;2.60;1.38;;;5.60;93.40;;;;;;5031050;28;20033;-69
2023/01/16 08:12:54;;;;;;;3.97;1.45;;;5.60;93.40;;;;;;5030251;28;20377;-68
2023/01/16 08:15:20;;;;;;;3.00;1.65;;;5.60;93.40;;;;;;5031081;28;20112;-69
2023/01/16 08:17:46;;;;;;;4.25;1.50;;;5.50;93.50;;;;;;5030313;28;20030;-69
2023/01/16 08:20:12;;;;;;;4.45;1.45;;;5.50;93.50;;;;;;5030522;28;20049;-68
2023/01/16 08:22:49;;;;;;;2.53;1.10;;;5.50;93.70;;;;;;5030870;28;20018;-69
2023/01/16 08:25:16;;;;;;;4.45;1.42;;;5.50;94.00;;;;;;5031642;28;20061;-69
2023/01/16 08:27:42;;;;;;;7.68;1.50;;;5.40;93.70;;;;;;5030149;28;20052;-67
2023/01/16 08:30:10;;;;;;;3.33;1.33;;;5.50;93.80;;;;;;5030307;28;20076;-68
2023/01/16 08:32:37;;;;;;;2.58;1.40;;;5.50;93.80;;;;;;5027515;28;20017;-68
2023/01/16 08:35:03;;;;;;;2.50;1.20;;;5.50;93.80;;;;;;5029235;28;20087;-67
2023/01/16 08:37:30;;;;;;;2.35;1.20;;;5.50;93.80;;;;;;5028392;28;20026;-68
2023/01/16 08:39:55;;;;;;;1.58;0.95;;;5.50;93.80;;;;;;5030267;28;20503;-69
2023/01/16 08:53:19;;;;;;;2.63;1.30;;;5.50;93.90;;;;;;5029467;28;20068;-68
2023/01/16 08:55:45;;;;;;;4.60;1.30;;;5.60;94.00;;;;;;5029143;28;20033;-68
2023/01/16 08:58:10;;;;;;;4.15;1.30;;;5.60;94.00;;;;;;5030316;28;20160;-69
2023/01/16 09:00:37;;;;;;;3.40;1.23;;;5.50;93.90;;;;;;5029065;28;20053;-69
2023/01/16 09:03:02;;;;;;;5.35;1.48;;;5.60;93.90;;;;;;5026128;28;20091;-68
2023/01/16 09:05:28;;;;;;;2.05;1.10;;;5.60;94.00;;;;;;5029038;28;20025;-66
2023/01/16 09:07:54;;;;;;;3.28;1.65;;;5.60;94.00;;;;;;5029269;28;20035;-68
2023/01/16 09:10:20;;;;;;;2.42;1.13;;;5.60;94.00;;;;;;5028928;28;20391;-67
2023/01/16 09:15:30;;;;;;;2.63;1.30;;;5.70;94.00;;;;;;5028372;28;20087;-67
2023/01/16 09:17:55;;;;;;;2.88;1.30;;;5.70;94.00;;;;;;5029283;28;20022;-69
2023/01/16 09:20:21;;;;;;;5.40;1.35;;;5.70;93.90;;;;;;5028479;28;20480;-68
2023/01/16 09:22:47;;;;;;;2.40;1.50;;;5.70;94.00;;;;;;5028819;28;20445;-67
2023/01/16 09:25:13;;;;;;;3.92;1.50;;;5.70;94.00;;;;;;5027425;28;20026;-68
2023/01/16 09:27:38;;;;;;;4.85;1.30;;;5.80;94.10;;;;;;5029736;28;20029;-67
2023/01/16 09:30:05;;;;;;;4.18;1.48;;;5.80;94.10;;;;;;5029386;28;20061;-67
2023/01/16 09:32:33;;;;;;;3.92;1.52;;;5.80;94.00;;;;;;5029278;28;20036;-67
2023/01/16 09:34:59;;;;;;;1.75;1.27;;;5.80;94.00;;;;;;5028727;28;20056;-68
2023/01/16 09:37:24;;;;;;;1.23;1.13;;;5.80;94.00;;;;;;5028924;28;20057;-67
2023/01/16 09:39:50;;;;;;;4.72;1.58;;;5.80;94.10;;;;;;5029426;28;20056;-68
2023/01/16 09:45:23;;;;;;;3.08;1.67;;;5.80;94.10;;;;;;5028136;28;20123;-67
2023/01/16 09:47:55;;;;;;;2.05;1.60;;;5.80;94.10;;;;;;5028030;28;20025;-67
2023/01/16 09:50:26;;;;;;;3.42;1.65;;;5.80;94.20;;;;;;5029030;28;20034;-68
2023/01/16 09:58:36;;;;;;;2.58;1.77;;;5.80;94.30;;;;;;5028499;28;20048;-68
2023/01/16 10:01:26;;;;;;;2.67;1.80;;;5.80;94.30;;;;;;5024476;28;20045;-69
2023/01/16 10:04:03;;;;;;;2.33;1.70;;;5.80;94.30;;;;;;5028906;28;20017;-69
2023/01/16 10:06:41;;;;;;;4.07;2.20;;;5.80;94.30;;;;;;5025712;28;20021;-68
2023/01/16 10:09:17;;;;;;;6.45;2.05;;;5.80;94.20;;;;;;5026325;28;20029;-67
2023/01/16 10:11:53;;;;;;;3.58;1.80;;;5.80;94.20;;;;;;5028999;28;20013;-69
2023/01/16 10:14:51;;;;;;;2.50;1.83;;;5.80;94.20;;;;;;5028713;28;20516;-69
2023/01/16 10:17:51;;;;;;;1.80;1.60;;;5.80;94.30;;;;;;5027326;28;20060;-70
2023/01/16 10:20:29;;;;;;;2.63;1.65;;;5.80;94.30;;;;;;5027673;28;20030;-68
2023/01/16 10:23:04;;;;;;;2.55;1.48;;;5.80;94.30;;;;;;5021541;28;20026;-68
2023/01/16 10:25:58;;;;;;;2.90;1.60;;;5.80;94.20;;;;;;5020622;28;20537;-68
2023/01/16 10:28:55;;;;;;;5.07;1.73;;;5.80;94.20;;;;;;5022794;28;20590;-68
2023/01/16 10:31:34;;;;;;;2.47;1.65;;;5.80;94.20;;;;;;5013446;28;21334;-68
2023/01/16 10:34:23;;;;;;;1.45;1.30;;;5.70;94.20;;;;;;5028257;28;20033;-68
2023/01/16 10:36:54;;;;;;;2.40;1.60;;;5.70;94.10;;;;;;5026367;28;20022;-68
2023/01/16 10:39:21;;;;;;;2.90;1.40;;;5.70;94.20;;;;;;5027269;28;20021;-68
2023/01/16 10:50:20;;;;;;;2.10;1.50;;;5.80;94.10;;;;;;5026671;28;20040;-68
2023/01/16 10:52:46;;;;;;;3.50;1.42;;;5.80;94.10;;;;;;5027069;28;20034;-68
2023/01/16 10:55:13;;;;;;;2.20;1.20;;;5.80;94.10;;;;;;5026788;28;20511;-69
2023/01/16 10:57:45;;;;;;;2.28;1.67;;;5.80;94.20;;;;;;5030116;28;20071;-67
2023/01/16 11:00:19;;;;;;;;;;;5.80;94.20;;;;;;5031797;28;20076;-67
2023/01/16 11:02:48;;;;;;;1.25;1.08;;;5.80;94.20;;;;;;5031253;28;19920;-68
2023/01/16 11:05:28;;;;;;;3.33;1.40;;;5.80;94.20;;;;;;5032057;28;20052;-69
2023/01/16 11:08:01;;;;;;;2.58;1.27;;;5.80;94.20;;;;;;5028327;28;20108;-68
2023/01/16 11:10:26;;;;;;;;;;;5.90;94.20;;;;;;5028362;28;20041;-68
2023/01/16 11:18:34;;;;;;;1.80;1.33;;;5.90;94.20;;;;;;5027861;28;20080;-69
2023/01/16 11:21:14;;;;;;;4.05;1.48;;;5.90;94.20;;;;;;5028606;28;20032;-68
2023/01/16 11:23:43;;;;;;;2.83;1.40;;;5.90;94.10;;;;;;5031187;28;20471;-67
2023/01/16 11:26:10;;;;;;;2.58;1.20;;;5.90;94.10;;;;;;5031412;28;20439;-67
2023/01/16 11:28:36;;;;;;;1.20;1.08;;;5.90;94.10;;;;;;5029347;28;20045;-68
2023/01/16 11:31:20;;;;;;;1.40;1.08;;;5.90;94.00;;;;;;5025763;28;20439;-68
2023/01/16 11:34:00;;;;;;;1.42;1.00;;;6.00;94.10;;;;;;5029787;28;20038;-68
2023/01/16 11:36:29;;;;;;;0.80;0.80;;;6.00;94.00;;;;;;5028625;28;20024;-67
2023/01/16 11:38:56;;;;;;;3.47;1.52;;;6.10;94.00;;;;;;5030352;28;20048;-68
2023/01/16 11:41:32;;;;;;;1.77;1.15;;;6.10;93.90;;;;;;5030586;28;20057;-68
2023/01/16 11:46:59;;;;;;;1.65;1.23;;;6.30;93.90;;;;;;5029936;28;20515;-68
2023/01/16 11:49:39;;;;;;;1.20;1.08;;;6.40;93.80;;;;;;5029107;28;20032;-67
2023/01/16 11:52:05;;;;;;;1.83;1.23;;;6.40;93.50;;;;;;5030110;28;20620;-68
2023/01/16 11:54:33;;;;;;;3.10;1.13;;;6.40;93.50;;;;;;5029410;28;20080;-68
2023/01/16 11:57:10;;;;;;;3.30;1.50;;;6.40;93.30;;;;;;5027317;28;20570;-67
2023/01/16 11:59:52;;;;;;;1.15;0.90;;;6.40;93.30;;;;;;5028972;28;20034;-68
2023/01/16 12:02:45;;;;;;;1.77;1.30;;;6.50;93.30;;;;;;5023903;28;20638;-68
2023/01/16 12:05:54;;;;;;;2.00;1.20;;;6.40;93.10;;;;;;5026829;28;20091;-68
2023/01/16 12:08:55;;;;;;;2.17;1.20;;;6.40;93.10;;;;;;5040710;28;20030;-68
2023/01/16 12:11:26;;;;;;;2.67;1.25;;;6.40;93.20;;;;;;5025061;28;21610;-69
2023/01/16 12:17:02;;;;;;;2.42;1.27;;;6.40;93.00;;;;;;5025519;28;20045;-68
2023/01/16 12:20:08;;;;;;;1.95;1.40;;;6.50;93.00;;;;;;5026097;28;20017;-68
2023/01/16 12:22:59;;;;;;;1.10;1.00;;;6.50;92.90;;;;;;5028091;28;20025;-68
2023/01/16 12:25:31;;;;;;;3.03;1.73;;;6.60;92.90;;;;;;5025991;28;20118;-68
2023/01/16 12:28:24;;;;;;;3.17;1.30;;;6.60;92.80;;;;;;5028551;28;20079;-68
2023/01/16 12:30:58;;;;;;;2.70;1.17;;;6.60;92.60;;;;;;5028666;28;20175;-67
2023/01/16 12:33:43;;;;;;;1.42;1.30;;;6.60;92.60;;;;;;5028204;28;20091;-67
2023/01/16 12:36:32;;;;;;;1.52;1.20;;;6.60;92.50;;;;;;5027721;28;20116;-69
2023/01/16 12:39:42;;;;;;;1.42;1.13;;;6.60;92.60;;;;;;5024101;28;20522;-67
2023/01/16 12:44:58;;;;;;;1.58;1.23;;;6.70;92.60;;;;;;5026866;28;20087;-68
2023/01/16 12:47:35;;;;;;;1.35;1.10;;;6.70;92.40;;;;;;5027878;28;20025;-68
2023/01/16 12:50:20;;;;;;;2.40;1.42;;;6.70;92.40;;;;;;5026176;28;20032;-68
2023/01/16 12:53:20;;;;;;;1.40;1.00;;;6.70;92.40;;;;;;5026155;28;20036;-68
2023/01/16 12:56:00;;;;;;;2.25;1.00;;;6.70;92.40;;;;;;5022753;28;20053;-68
2023/01/16 12:58:32;;;;;;;2.10;1.10;;;6.70;92.50;;;;;;5028947;28;20029;-68
2023/01/16 13:01:18;;;;;;;1.20;1.10;;;6.70;92.30;;;;;;5027266;28;20383;-67
2023/01/16 13:03:54;;;;;;;1.35;1.13;;;6.70;92.40;;;;;;5026858;28;20035;-68
2023/01/16 13:06:42;;;;;;;1.35;1.10;;;6.70;92.30;;;;;;5024945;28;20029;-67
2023/01/16 13:09:37;;;;;;;2.35;1.20;;;6.70;92.30;;;;;;5027192;28;20026;-68
2023/01/16 13:15:10;;;;;;;1.75;1.05;;;6.80;92.10;;;;;;5024309;28;20068;-67
2023/01/16 13:17:44;;;;;;;1.42;1.10;;;6.90;92.00;;;;;;5027017;28;20041;-67
2023/01/16 13:20:14;;;;;;;1.50;1.10;;;6.90;92.00;;;;;;5026974;28;20029;-68
2023/01/16 13:22:54;;;;;;;2.08;1.13;;;6.90;91.90;;;;;;5028936;28;20381;-67
2023/01/16 13:25:35;;;;;;;2.28;1.15;;;6.90;91.80;;;;;;5026489;28;20036;-68
2023/01/16 13:28:32;;;;;;;0.95;0.90;;;6.90;91.80;;;;;;5029870;28;20427;-68
2023/01/16 13:31:02;;;;;;;1.40;1.00;;;6.90;91.80;;;;;;5029134;28;20022;-68
2023/01/16 13:33:32;;;;;;;1.98;1.35;;;6.80;91.60;;;;;;5030110;28;20029;-68
2023/01/16 13:36:10;;;;;;;1.65;1.13;;;6.80;91.60;;;;;;5028105;28;20024;-67
2023/01/16 13:38:55;;;;;;;2.20;1.13;;;6.80;91.70;;;;;;5028966;28;20025;-69
2023/01/16 13:41:30;;;;;;;2.35;1.20;;;6.70;91.70;;;;;;5028858;28;20527;-69
2023/01/16 13:47:05;;;;;;;1.73;1.50;;;6.70;91.80;;;;;;5026712;28;20056;-67
2023/01/16 13:49:31;;;;;;;1.25;1.10;;;6.70;91.90;;;;;;5027160;28;20025;-68
2023/01/16 13:52:00;;;;;;;2.55;1.33;;;6.70;92.00;;;;;;5029644;28;20079;-67
2023/01/16 13:54:40;;;;;;;1.70;1.05;;;6.70;91.80;;;;;;5027102;28;20052;-67
2023/01/16 13:57:20;;;;;;;2.10;1.10;;;6.70;91.90;;;;;;5026316;28;20025;-68
2023/01/16 13:59:51;;;;;;;1.40;0.90;;;6.70;91.90;;;;;;5020976;28;20108;-68
2023/01/16 14:02:35;;;;;;;1.45;1.10;;;6.60;91.80;;;;;;5037408;28;20484;-67
2023/01/16 14:05:26;;;;;;;1.00;0.90;;;6.60;91.90;;;;;;5025006;28;20379;-68
2023/01/16 14:10:45;;;;;;;1.77;1.15;;;6.60;91.70;;;;;;5028116;28;20037;-68
2023/01/16 14:13:23;;;;;;;1.70;1.17;;;6.50;91.80;;;;;;5032900;28;20113;-67
2023/01/16 14:18:42;;;;;;;1.33;0.95;;;6.50;91.80;;;;;;5026319;28;20474;-66
2023/01/16 14:21:20;;;;;;;0.90;0.90;;;6.50;91.90;;;;;;5028204;28;20022;-67
2023/01/16 14:24:03;;;;;;;1.48;1.30;;;6.50;92.00;;;;;;5027321;28;20071;-68
2023/01/16 14:26:53;;;;;;;3.15;1.25;;;6.50;92.10;;;;;;5026878;28;20103;-68
2023/01/16 14:29:54;;;;;;;1.15;1.00;;;6.50;92.10;;;;;;5026573;28;20041;-67
2023/01/16 14:32:24;;;;;;;1.67;1.30;;;6.40;92.20;;;;;;5025966;28;21433;-68
2023/01/16 14:34:54;;;;;;;1.80;1.38;;;6.40;92.30;;;;;;5023827;28;20038;-67
2023/01/16 14:37:23;;;;;;;2.83;1.30;;;6.40;92.30;;;;;;5025580;28;20021;-67